sensor_id;sensor_type;location;lat;lon;timestamp;P1;durP1;ratioP1;P2;durP2;ratioP2
74059;SDS011;62414;53.436;8.828;2023-12-14T00:01:21;9.23;;;1.90;;
74059;SDS011;62414;53.436;8.828;2023-12-14T00:03:46;8.82;;;2.20;;
74059;SDS011;62414;53.436;8.828;2023-12-14T00:06:12;8.73;;;2.40;;
74059;SDS011;62414;53.436;8.828;2023-12-14T00:08:38;11.40;;;2.67;;
74059;SDS011;62414;53.436;8.828;2023-12-14T00:11:04;9.20;;;2.40;;
74059;SDS011;62414;53.436;8.828;2023-12-14T00:13:32;11.23;;;2.60;;
74059;SDS011;62414;53.436;8.828;2023-12-14T00:15:57;7.55;;;2.35;;
74059;SDS011;62414;53.436;8.828;2023-12-14T00:18:23;7.40;;;2.27;;
74059;SDS011;62414;53.436;8.828;2023-12-14T00:20:48;10.25;;;2.47;;
74059;SDS011;62414;53.436;8.828;2023-12-14T00:23:14;9.37;;;2.53;;
74059;SDS011;62414;53.436;8.828;2023-12-14T00:25:39;12.37;;;3.20;;
74059;SDS011;62414;53.436;8.828;2023-12-14T00:28:05;9.35;;;2.60;;
74059;SDS011;62414;53.436;8.828;2023-12-14T00:30:32;8.60;;;3.20;;
74059;SDS011;62414;53.436;8.828;2023-12-14T00:32:57;9.85;;;2.88;;
74059;SDS011;62414;53.436;8.828;2023-12-14T00:35:23;13.77;;;3.33;;
74059;SDS011;62414;53.436;8.828;2023-12-14T00:37:49;14.60;;;3.50;;
74059;SDS011;62414;53.436;8.828;2023-12-14T00:40:14;9.17;;;2.80;;
74059;SDS011;62414;53.436;8.828;2023-12-14T00:42:40;10.18;;;3.55;;
74059;SDS011;62414;53.436;8.828;2023-12-14T00:45:06;12.73;;;3.20;;
74059;SDS011;62414;53.436;8.828;2023-12-14T00:47:33;12.35;;;2.95;;
74059;SDS011;62414;53.436;8.828;2023-12-14T00:49:59;12.15;;;2.90;;
74059;SDS011;62414;53.436;8.828;2023-12-14T00:52:24;9.73;;;3.03;;
74059;SDS011;62414;53.436;8.828;2023-12-14T00:54:50;13.80;;;3.67;;
74059;SDS011;62414;53.436;8.828;2023-12-14T00:57:15;10.38;;;3.00;;
74059;SDS011;62414;53.436;8.828;2023-12-14T00:59:41;8.97;;;2.97;;
74059;SDS011;62414;53.436;8.828;2023-12-14T01:02:06;10.25;;;3.10;;
74059;SDS011;62414;53.436;8.828;2023-12-14T01:04:33;12.10;;;3.20;;
74059;SDS011;62414;53.436;8.828;2023-12-14T01:06:59;13.98;;;3.78;;
74059;SDS011;62414;53.436;8.828;2023-12-14T01:09:24;13.43;;;3.90;;
74059;SDS011;62414;53.436;8.828;2023-12-14T01:11:50;11.93;;;3.23;;
74059;SDS011;62414;53.436;8.828;2023-12-14T01:14:15;10.73;;;3.40;;
74059;SDS011;62414;53.436;8.828;2023-12-14T01:16:41;12.80;;;3.40;;
74059;SDS011;62414;53.436;8.828;2023-12-14T01:19:06;12.73;;;4.03;;
74059;SDS011;62414;53.436;8.828;2023-12-14T01:21:33;11.37;;;3.23;;
74059;SDS011;62414;53.436;8.828;2023-12-14T01:23:59;13.48;;;3.55;;
74059;SDS011;62414;53.436;8.828;2023-12-14T01:26:24;11.17;;;3.00;;
74059;SDS011;62414;53.436;8.828;2023-12-14T01:28:50;11.32;;;3.60;;
74059;SDS011;62414;53.436;8.828;2023-12-14T01:31:15;11.70;;;3.10;;
74059;SDS011;62414;53.436;8.828;2023-12-14T01:33:41;11.87;;;3.60;;
74059;SDS011;62414;53.436;8.828;2023-12-14T01:36:07;10.82;;;2.88;;
74059;SDS011;62414;53.436;8.828;2023-12-14T01:38:34;11.18;;;3.33;;
74059;SDS011;62414;53.436;8.828;2023-12-14T01:41:00;10.80;;;3.27;;
74059;SDS011;62414;53.436;8.828;2023-12-14T01:43:25;13.63;;;3.08;;
74059;SDS011;62414;53.436;8.828;2023-12-14T01:45:51;13.33;;;3.00;;
74059;SDS011;62414;53.436;8.828;2023-12-14T01:48:16;10.03;;;2.80;;
74059;SDS011;62414;53.436;8.828;2023-12-14T01:50:42;12.70;;;3.55;;
74059;SDS011;62414;53.436;8.828;2023-12-14T01:53:07;11.60;;;3.30;;
74059;SDS011;62414;53.436;8.828;2023-12-14T01:55:34;10.60;;;2.97;;
74059;SDS011;62414;53.436;8.828;2023-12-14T01:57:59;12.10;;;3.13;;
74059;SDS011;62414;53.436;8.828;2023-12-14T02:00:27;12.27;;;3.08;;
74059;SDS011;62414;53.436;8.828;2023-12-14T02:02:56;14.17;;;3.73;;
74059;SDS011;62414;53.436;8.828;2023-12-14T02:05:22;13.48;;;3.08;;
74059;SDS011;62414;53.436;8.828;2023-12-14T02:07:47;11.37;;;3.67;;
74059;SDS011;62414;53.436;8.828;2023-12-14T02:10:13;12.20;;;3.03;;
74059;SDS011;62414;53.436;8.828;2023-12-14T02:12:40;11.05;;;3.10;;
74059;SDS011;62414;53.436;8.828;2023-12-14T02:15:06;10.27;;;3.22;;
74059;SDS011;62414;53.436;8.828;2023-12-14T02:17:32;10.68;;;3.10;;
74059;SDS011;62414;53.436;8.828;2023-12-14T02:19:57;12.73;;;3.93;;
74059;SDS011;62414;53.436;8.828;2023-12-14T02:22:23;11.40;;;3.10;;
74059;SDS011;62414;53.436;8.828;2023-12-14T02:24:49;9.93;;;2.87;;
74059;SDS011;62414;53.436;8.828;2023-12-14T02:27:15;11.23;;;2.87;;
74059;SDS011;62414;53.436;8.828;2023-12-14T02:29:40;11.07;;;3.00;;
74059;SDS011;62414;53.436;8.828;2023-12-14T02:32:06;10.80;;;2.97;;
74059;SDS011;62414;53.436;8.828;2023-12-14T02:34:32;10.07;;;3.50;;
74059;SDS011;62414;53.436;8.828;2023-12-14T02:36:57;13.67;;;3.17;;
74059;SDS011;62414;53.436;8.828;2023-12-14T02:39:23;12.23;;;3.20;;
74059;SDS011;62414;53.436;8.828;2023-12-14T02:41:49;12.25;;;3.15;;
74059;SDS011;62414;53.436;8.828;2023-12-14T02:44:15;11.70;;;3.00;;
74059;SDS011;62414;53.436;8.828;2023-12-14T02:46:40;11.27;;;3.47;;
74059;SDS011;62414;53.436;8.828;2023-12-14T02:49:06;8.67;;;2.83;;
74059;SDS011;62414;53.436;8.828;2023-12-14T02:51:31;13.47;;;3.03;;
74059;SDS011;62414;53.436;8.828;2023-12-14T02:53:57;10.10;;;2.75;;
74059;SDS011;62414;53.436;8.828;2023-12-14T02:56:22;10.37;;;2.70;;
74059;SDS011;62414;53.436;8.828;2023-12-14T02:58:49;10.27;;;2.83;;
74059;SDS011;62414;53.436;8.828;2023-12-14T03:01:15;11.23;;;2.80;;
74059;SDS011;62414;53.436;8.828;2023-12-14T03:03:40;9.60;;;3.03;;
74059;SDS011;62414;53.436;8.828;2023-12-14T03:06:06;10.70;;;3.20;;
74059;SDS011;62414;53.436;8.828;2023-12-14T03:08:31;14.20;;;3.10;;
74059;SDS011;62414;53.436;8.828;2023-12-14T03:10:57;9.20;;;2.70;;
74059;SDS011;62414;53.436;8.828;2023-12-14T03:13:22;9.10;;;3.03;;
74059;SDS011;62414;53.436;8.828;2023-12-14T03:15:49;12.07;;;3.03;;
74059;SDS011;62414;53.436;8.828;2023-12-14T03:18:15;10.93;;;2.72;;
74059;SDS011;62414;53.436;8.828;2023-12-14T03:20:40;12.17;;;3.50;;
74059;SDS011;62414;53.436;8.828;2023-12-14T03:23:06;14.40;;;3.80;;
74059;SDS011;62414;53.436;8.828;2023-12-14T03:25:31;11.47;;;3.13;;
74059;SDS011;62414;53.436;8.828;2023-12-14T03:27:57;10.70;;;3.17;;
74059;SDS011;62414;53.436;8.828;2023-12-14T03:30:22;12.15;;;3.28;;
74059;SDS011;62414;53.436;8.828;2023-12-14T03:32:49;12.63;;;3.40;;
74059;SDS011;62414;53.436;8.828;2023-12-14T03:35:15;10.82;;;3.63;;
74059;SDS011;62414;53.436;8.828;2023-12-14T03:37:40;12.23;;;3.40;;
74059;SDS011;62414;53.436;8.828;2023-12-14T03:40:06;11.80;;;3.42;;
74059;SDS011;62414;53.436;8.828;2023-12-14T03:42:32;10.17;;;3.03;;
74059;SDS011;62414;53.436;8.828;2023-12-14T03:44:58;14.77;;;3.30;;
74059;SDS011;62414;53.436;8.828;2023-12-14T03:47:23;11.93;;;3.67;;
74059;SDS011;62414;53.436;8.828;2023-12-14T03:49:50;11.83;;;3.67;;
74059;SDS011;62414;53.436;8.828;2023-12-14T03:52:15;10.30;;;3.00;;
74059;SDS011;62414;53.436;8.828;2023-12-14T03:54:41;13.50;;;3.30;;
74059;SDS011;62414;53.436;8.828;2023-12-14T03:57:06;12.43;;;2.85;;
74059;SDS011;62414;53.436;8.828;2023-12-14T03:59:32;11.47;;;3.90;;
74059;SDS011;62414;53.436;8.828;2023-12-14T04:01:57;11.07;;;3.77;;
74059;SDS011;62414;53.436;8.828;2023-12-14T04:04:23;11.82;;;3.33;;
74059;SDS011;62414;53.436;8.828;2023-12-14T04:06:50;13.40;;;3.57;;
74059;SDS011;62414;53.436;8.828;2023-12-14T04:09:15;11.82;;;3.28;;
74059;SDS011;62414;53.436;8.828;2023-12-14T04:11:41;16.20;;;3.30;;
74059;SDS011;62414;53.436;8.828;2023-12-14T04:14:06;15.50;;;3.67;;
74059;SDS011;62414;53.436;8.828;2023-12-14T04:16:32;12.93;;;4.30;;
74059;SDS011;62414;53.436;8.828;2023-12-14T04:18:57;10.67;;;3.53;;
74059;SDS011;62414;53.436;8.828;2023-12-14T04:21:23;13.23;;;4.00;;
74059;SDS011;62414;53.436;8.828;2023-12-14T04:23:50;13.80;;;3.97;;
74059;SDS011;62414;53.436;8.828;2023-12-14T04:26:15;14.35;;;3.85;;
74059;SDS011;62414;53.436;8.828;2023-12-14T04:28:41;14.70;;;3.33;;
74059;SDS011;62414;53.436;8.828;2023-12-14T04:31:06;12.00;;;3.60;;
74059;SDS011;62414;53.436;8.828;2023-12-14T04:33:32;11.35;;;3.75;;
74059;SDS011;62414;53.436;8.828;2023-12-14T04:35:57;16.53;;;3.63;;
74059;SDS011;62414;53.436;8.828;2023-12-14T04:38:23;11.73;;;3.33;;
74059;SDS011;62414;53.436;8.828;2023-12-14T04:40:49;13.10;;;3.60;;
74059;SDS011;62414;53.436;8.828;2023-12-14T04:43:15;10.60;;;3.47;;
74059;SDS011;62414;53.436;8.828;2023-12-14T04:45:40;13.82;;;3.63;;
74059;SDS011;62414;53.436;8.828;2023-12-14T04:48:06;12.97;;;3.27;;
74059;SDS011;62414;53.436;8.828;2023-12-14T04:50:31;15.33;;;3.57;;
74059;SDS011;62414;53.436;8.828;2023-12-14T04:52:57;10.93;;;3.22;;
74059;SDS011;62414;53.436;8.828;2023-12-14T04:55:22;13.57;;;3.50;;
74059;SDS011;62414;53.436;8.828;2023-12-14T04:57:49;10.87;;;3.63;;
74059;SDS011;62414;53.436;8.828;2023-12-14T05:00:15;15.18;;;3.47;;
74059;SDS011;62414;53.436;8.828;2023-12-14T05:02:41;13.55;;;3.67;;
74059;SDS011;62414;53.436;8.828;2023-12-14T05:05:06;11.10;;;3.80;;
74059;SDS011;62414;53.436;8.828;2023-12-14T05:07:32;12.60;;;3.80;;
74059;SDS011;62414;53.436;8.828;2023-12-14T05:09:57;11.73;;;3.33;;
74059;SDS011;62414;53.436;8.828;2023-12-14T05:12:23;15.17;;;4.07;;
74059;SDS011;62414;53.436;8.828;2023-12-14T05:14:50;15.13;;;3.92;;
74059;SDS011;62414;53.436;8.828;2023-12-14T05:17:15;11.73;;;3.67;;
74059;SDS011;62414;53.436;8.828;2023-12-14T05:19:41;14.80;;;3.67;;
74059;SDS011;62414;53.436;8.828;2023-12-14T05:22:06;14.20;;;3.67;;
74059;SDS011;62414;53.436;8.828;2023-12-14T05:24:32;11.60;;;3.47;;
74059;SDS011;62414;53.436;8.828;2023-12-14T05:26:57;12.68;;;3.78;;
74059;SDS011;62414;53.436;8.828;2023-12-14T05:29:23;16.13;;;4.10;;
74059;SDS011;62414;53.436;8.828;2023-12-14T05:31:50;15.20;;;4.20;;
74059;SDS011;62414;53.436;8.828;2023-12-14T05:34:15;11.67;;;4.07;;
74059;SDS011;62414;53.436;8.828;2023-12-14T05:36:41;14.55;;;4.13;;
74059;SDS011;62414;53.436;8.828;2023-12-14T05:39:06;15.73;;;4.53;;
74059;SDS011;62414;53.436;8.828;2023-12-14T05:41:32;10.83;;;3.47;;
74059;SDS011;62414;53.436;8.828;2023-12-14T05:43:57;16.60;;;3.90;;
74059;SDS011;62414;53.436;8.828;2023-12-14T05:46:23;15.03;;;3.67;;
74059;SDS011;62414;53.436;8.828;2023-12-14T05:48:50;15.38;;;4.10;;
74059;SDS011;62414;53.436;8.828;2023-12-14T05:51:25;12.23;;;3.67;;
74059;SDS011;62414;53.436;8.828;2023-12-14T05:53:51;15.60;;;4.13;;
74059;SDS011;62414;53.436;8.828;2023-12-14T05:56:17;12.93;;;3.90;;
74059;SDS011;62414;53.436;8.828;2023-12-14T05:58:42;14.43;;;4.53;;
74059;SDS011;62414;53.436;8.828;2023-12-14T06:01:08;12.43;;;3.77;;
74059;SDS011;62414;53.436;8.828;2023-12-14T06:03:33;15.90;;;4.27;;
74059;SDS011;62414;53.436;8.828;2023-12-14T06:06:00;14.10;;;3.97;;
74059;SDS011;62414;53.436;8.828;2023-12-14T06:08:26;16.07;;;4.63;;
74059;SDS011;62414;53.436;8.828;2023-12-14T06:10:51;16.33;;;4.30;;
74059;SDS011;62414;53.436;8.828;2023-12-14T06:13:16;16.40;;;4.20;;
74059;SDS011;62414;53.436;8.828;2023-12-14T06:15:42;13.37;;;4.07;;
74059;SDS011;62414;53.436;8.828;2023-12-14T06:18:07;17.30;;;4.45;;
74059;SDS011;62414;53.436;8.828;2023-12-14T06:20:33;14.83;;;3.70;;
74059;SDS011;62414;53.436;8.828;2023-12-14T06:23:00;14.30;;;3.93;;
74059;SDS011;62414;53.436;8.828;2023-12-14T06:25:25;14.82;;;4.20;;
74059;SDS011;62414;53.436;8.828;2023-12-14T06:27:51;11.83;;;3.50;;
74059;SDS011;62414;53.436;8.828;2023-12-14T06:30:16;14.37;;;4.07;;
74059;SDS011;62414;53.436;8.828;2023-12-14T06:32:42;13.03;;;4.13;;
74059;SDS011;62414;53.436;8.828;2023-12-14T06:35:07;14.38;;;4.10;;
74059;SDS011;62414;53.436;8.828;2023-12-14T06:37:33;18.57;;;5.00;;
74059;SDS011;62414;53.436;8.828;2023-12-14T06:40:00;10.60;;;2.47;;
74059;SDS011;62414;53.436;8.828;2023-12-14T06:42:26;8.98;;;2.42;;
74059;SDS011;62414;53.436;8.828;2023-12-14T06:44:52;9.07;;;2.55;;
74059;SDS011;62414;53.436;8.828;2023-12-14T06:47:17;9.83;;;2.80;;
74059;SDS011;62414;53.436;8.828;2023-12-14T06:49:43;7.28;;;2.22;;
74059;SDS011;62414;53.436;8.828;2023-12-14T06:52:08;8.23;;;2.77;;
74059;SDS011;62414;53.436;8.828;2023-12-14T06:54:34;16.50;;;3.80;;
74059;SDS011;62414;53.436;8.828;2023-12-14T06:57:01;16.90;;;4.38;;
74059;SDS011;62414;53.436;8.828;2023-12-14T06:59:26;13.35;;;3.60;;
74059;SDS011;62414;53.436;8.828;2023-12-14T07:01:52;14.57;;;4.00;;
74059;SDS011;62414;53.436;8.828;2023-12-14T07:04:17;16.60;;;3.60;;
74059;SDS011;62414;53.436;8.828;2023-12-14T07:06:43;15.07;;;4.13;;
74059;SDS011;62414;53.436;8.828;2023-12-14T07:09:08;12.27;;;3.50;;
74059;SDS011;62414;53.436;8.828;2023-12-14T07:11:34;14.57;;;3.80;;
74059;SDS011;62414;53.436;8.828;2023-12-14T07:14:00;13.30;;;3.97;;
74059;SDS011;62414;53.436;8.828;2023-12-14T07:16:26;13.73;;;4.10;;
74059;SDS011;62414;53.436;8.828;2023-12-14T07:18:51;13.82;;;4.38;;
74059;SDS011;62414;53.436;8.828;2023-12-14T07:21:17;10.30;;;3.23;;
74059;SDS011;62414;53.436;8.828;2023-12-14T07:23:42;14.77;;;3.80;;
74059;SDS011;62414;53.436;8.828;2023-12-14T07:26:08;12.25;;;3.50;;
74059;SDS011;62414;53.436;8.828;2023-12-14T07:28:33;14.03;;;3.97;;
74059;SDS011;62414;53.436;8.828;2023-12-14T07:31:00;14.37;;;3.50;;
74059;SDS011;62414;53.436;8.828;2023-12-14T07:33:26;14.80;;;3.65;;
74059;SDS011;62414;53.436;8.828;2023-12-14T07:35:52;13.07;;;3.72;;
74059;SDS011;62414;53.436;8.828;2023-12-14T07:38:18;14.03;;;4.17;;
74059;SDS011;62414;53.436;8.828;2023-12-14T07:40:43;13.20;;;3.95;;
74059;SDS011;62414;53.436;8.828;2023-12-14T07:43:09;14.27;;;4.10;;
74059;SDS011;62414;53.436;8.828;2023-12-14T07:45:34;16.20;;;3.87;;
74059;SDS011;62414;53.436;8.828;2023-12-14T07:48:01;15.00;;;3.95;;
74059;SDS011;62414;53.436;8.828;2023-12-14T07:50:27;12.05;;;3.50;;
74059;SDS011;62414;53.436;8.828;2023-12-14T07:52:52;14.30;;;3.67;;
74059;SDS011;62414;53.436;8.828;2023-12-14T07:55:18;15.77;;;4.17;;
74059;SDS011;62414;53.436;8.828;2023-12-14T07:57:44;16.63;;;3.63;;
74059;SDS011;62414;53.436;8.828;2023-12-14T08:00:10;17.43;;;4.90;;
74059;SDS011;62414;53.436;8.828;2023-12-14T08:02:36;14.45;;;3.75;;
74059;SDS011;62414;53.436;8.828;2023-12-14T08:05:04;15.45;;;4.65;;
74059;SDS011;62414;53.436;8.828;2023-12-14T08:07:30;15.30;;;3.75;;
74059;SDS011;62414;53.436;8.828;2023-12-14T08:09:55;13.90;;;4.23;;
74059;SDS011;62414;53.436;8.828;2023-12-14T08:12:22;16.80;;;4.35;;
74059;SDS011;62414;53.436;8.828;2023-12-14T08:14:48;11.97;;;4.00;;
74059;SDS011;62414;53.436;8.828;2023-12-14T08:17:14;12.70;;;3.95;;
74059;SDS011;62414;53.436;8.828;2023-12-14T08:19:39;12.63;;;3.67;;
74059;SDS011;62414;53.436;8.828;2023-12-14T08:22:06;14.33;;;3.80;;
74059;SDS011;62414;53.436;8.828;2023-12-14T08:24:32;13.07;;;4.00;;
74059;SDS011;62414;53.436;8.828;2023-12-14T08:26:57;16.73;;;4.43;;
74059;SDS011;62414;53.436;8.828;2023-12-14T08:29:23;13.63;;;4.00;;
74059;SDS011;62414;53.436;8.828;2023-12-14T08:31:48;14.00;;;3.93;;
74059;SDS011;62414;53.436;8.828;2023-12-14T08:34:14;11.07;;;3.50;;
74059;SDS011;62414;53.436;8.828;2023-12-14T08:36:39;13.50;;;3.90;;
74059;SDS011;62414;53.436;8.828;2023-12-14T08:39:06;11.57;;;3.53;;
74059;SDS011;62414;53.436;8.828;2023-12-14T08:41:32;14.02;;;4.63;;
74059;SDS011;62414;53.436;8.828;2023-12-14T08:43:57;13.73;;;4.43;;
74059;SDS011;62414;53.436;8.828;2023-12-14T08:46:23;14.60;;;4.70;;
74059;SDS011;62414;53.436;8.828;2023-12-14T08:48:48;13.37;;;4.47;;
74059;SDS011;62414;53.436;8.828;2023-12-14T08:51:14;15.10;;;4.40;;
74059;SDS011;62414;53.436;8.828;2023-12-14T08:53:39;11.95;;;4.43;;
74059;SDS011;62414;53.436;8.828;2023-12-14T08:56:06;15.17;;;4.00;;
74059;SDS011;62414;53.436;8.828;2023-12-14T08:58:33;12.82;;;4.30;;
74059;SDS011;62414;53.436;8.828;2023-12-14T09:00:59;14.13;;;3.87;;
74059;SDS011;62414;53.436;8.828;2023-12-14T09:03:24;13.17;;;3.87;;
74059;SDS011;62414;53.436;8.828;2023-12-14T09:05:50;13.93;;;4.20;;
74059;SDS011;62414;53.436;8.828;2023-12-14T09:08:15;12.10;;;4.07;;
74059;SDS011;62414;53.436;8.828;2023-12-14T09:10:41;12.33;;;3.73;;
74059;SDS011;62414;53.436;8.828;2023-12-14T09:13:08;13.18;;;4.20;;
74059;SDS011;62414;53.436;8.828;2023-12-14T09:15:33;13.45;;;3.65;;
74059;SDS011;62414;53.436;8.828;2023-12-14T09:17:59;15.93;;;4.10;;
74059;SDS011;62414;53.436;8.828;2023-12-14T09:20:25;13.95;;;4.05;;
74059;SDS011;62414;53.436;8.828;2023-12-14T09:22:50;15.40;;;3.90;;
74059;SDS011;62414;53.436;8.828;2023-12-14T09:25:16;13.00;;;4.10;;
74059;SDS011;62414;53.436;8.828;2023-12-14T09:27:42;13.10;;;4.00;;
74059;SDS011;62414;53.436;8.828;2023-12-14T09:30:09;12.48;;;4.05;;
74059;SDS011;62414;53.436;8.828;2023-12-14T09:32:35;12.67;;;3.73;;
74059;SDS011;62414;53.436;8.828;2023-12-14T09:35:01;13.32;;;3.75;;
74059;SDS011;62414;53.436;8.828;2023-12-14T09:37:26;12.20;;;4.03;;
74059;SDS011;62414;53.436;8.828;2023-12-14T09:39:52;13.67;;;3.40;;
74059;SDS011;62414;53.436;8.828;2023-12-14T09:42:18;12.80;;;4.22;;
74059;SDS011;62414;53.436;8.828;2023-12-14T09:44:45;14.15;;;3.88;;
74059;SDS011;62414;53.436;8.828;2023-12-14T09:47:12;13.07;;;4.33;;
74059;SDS011;62414;53.436;8.828;2023-12-14T09:49:38;12.02;;;3.67;;
74059;SDS011;62414;53.436;8.828;2023-12-14T09:52:03;13.15;;;3.67;;
74059;SDS011;62414;53.436;8.828;2023-12-14T09:54:29;15.83;;;4.57;;
74059;SDS011;62414;53.436;8.828;2023-12-14T09:56:54;13.20;;;4.27;;
74059;SDS011;62414;53.436;8.828;2023-12-14T09:59:20;14.02;;;3.78;;
74059;SDS011;62414;53.436;8.828;2023-12-14T10:01:46;11.83;;;4.10;;
74059;SDS011;62414;53.436;8.828;2023-12-14T10:04:13;13.73;;;4.53;;
74059;SDS011;62414;53.436;8.828;2023-12-14T10:06:40;15.43;;;4.45;;
74059;SDS011;62414;53.436;8.828;2023-12-14T10:09:06;12.73;;;3.87;;
74059;SDS011;62414;53.436;8.828;2023-12-14T10:11:32;15.27;;;4.30;;
74059;SDS011;62414;53.436;8.828;2023-12-14T10:13:57;12.73;;;4.97;;
74059;SDS011;62414;53.436;8.828;2023-12-14T10:16:29;14.73;;;5.78;;
74059;SDS011;62414;53.436;8.828;2023-12-14T10:18:55;14.75;;;5.43;;
74059;SDS011;62414;53.436;8.828;2023-12-14T10:21:22;19.23;;;5.00;;
74059;SDS011;62414;53.436;8.828;2023-12-14T10:23:48;13.32;;;4.20;;
74059;SDS011;62414;53.436;8.828;2023-12-14T10:26:13;13.77;;;4.10;;
74059;SDS011;62414;53.436;8.828;2023-12-14T10:28:39;14.02;;;4.15;;
74059;SDS011;62414;53.436;8.828;2023-12-14T10:31:05;17.33;;;4.40;;
74059;SDS011;62414;53.436;8.828;2023-12-14T10:33:30;13.43;;;4.45;;
74059;SDS011;62414;53.436;8.828;2023-12-14T10:35:56;14.40;;;4.00;;
74059;SDS011;62414;53.436;8.828;2023-12-14T10:38:23;15.77;;;4.60;;
74059;SDS011;62414;53.436;8.828;2023-12-14T10:40:49;16.15;;;4.57;;
74059;SDS011;62414;53.436;8.828;2023-12-14T10:43:15;14.23;;;4.00;;
74059;SDS011;62414;53.436;8.828;2023-12-14T10:45:41;14.82;;;5.03;;
74059;SDS011;62414;53.436;8.828;2023-12-14T10:48:08;18.73;;;5.18;;
74059;SDS011;62414;53.436;8.828;2023-12-14T10:50:34;13.57;;;4.03;;
74059;SDS011;62414;53.436;8.828;2023-12-14T10:53:00;13.90;;;3.93;;
74059;SDS011;62414;53.436;8.828;2023-12-14T10:55:31;17.42;;;4.53;;
74059;SDS011;62414;53.436;8.828;2023-12-14T10:58:04;20.05;;;4.93;;
74059;SDS011;62414;53.436;8.828;2023-12-14T11:00:30;16.65;;;4.95;;
74059;SDS011;62414;53.436;8.828;2023-12-14T11:02:56;12.47;;;4.63;;
74059;SDS011;62414;53.436;8.828;2023-12-14T11:05:22;12.55;;;4.28;;
74059;SDS011;62414;53.436;8.828;2023-12-14T11:07:49;14.27;;;4.72;;
74059;SDS011;62414;53.436;8.828;2023-12-14T11:10:19;18.65;;;4.88;;
74059;SDS011;62414;53.436;8.828;2023-12-14T11:13:01;17.65;;;4.97;;
74059;SDS011;62414;53.436;8.828;2023-12-14T11:15:28;14.57;;;4.80;;
74059;SDS011;62414;53.436;8.828;2023-12-14T11:20:48;16.30;;;5.63;;
74059;SDS011;62414;53.436;8.828;2023-12-14T11:23:15;11.63;;;3.92;;
74059;SDS011;62414;53.436;8.828;2023-12-14T11:25:41;13.13;;;4.40;;
74059;SDS011;62414;53.436;8.828;2023-12-14T11:28:08;15.20;;;4.70;;
74059;SDS011;62414;53.436;8.828;2023-12-14T11:30:34;12.98;;;4.63;;
74059;SDS011;62414;53.436;8.828;2023-12-14T11:33:00;15.83;;;4.83;;
74059;SDS011;62414;53.436;8.828;2023-12-14T11:35:26;14.60;;;4.50;;
74059;SDS011;62414;53.436;8.828;2023-12-14T11:37:51;13.30;;;4.70;;
74059;SDS011;62414;53.436;8.828;2023-12-14T11:40:17;19.30;;;5.10;;
74059;SDS011;62414;53.436;8.828;2023-12-14T11:42:42;14.52;;;4.70;;
74059;SDS011;62414;53.436;8.828;2023-12-14T11:45:09;15.17;;;4.90;;
74059;SDS011;62414;53.436;8.828;2023-12-14T11:47:35;21.13;;;5.30;;
74059;SDS011;62414;53.436;8.828;2023-12-14T11:50:00;16.03;;;4.53;;
74059;SDS011;62414;53.436;8.828;2023-12-14T11:52:27;16.65;;;5.60;;
74059;SDS011;62414;53.436;8.828;2023-12-14T11:54:52;15.60;;;5.70;;
74059;SDS011;62414;53.436;8.828;2023-12-14T11:57:18;16.58;;;5.22;;
74059;SDS011;62414;53.436;8.828;2023-12-14T11:59:44;15.40;;;5.20;;
74059;SDS011;62414;53.436;8.828;2023-12-14T12:02:11;16.45;;;5.55;;
74059;SDS011;62414;53.436;8.828;2023-12-14T12:04:37;17.75;;;6.47;;
74059;SDS011;62414;53.436;8.828;2023-12-14T12:07:03;16.00;;;5.73;;
74059;SDS011;62414;53.436;8.828;2023-12-14T12:09:38;14.80;;;5.18;;
74059;SDS011;62414;53.436;8.828;2023-12-14T12:12:06;18.77;;;6.57;;
74059;SDS011;62414;53.436;8.828;2023-12-14T12:14:32;16.40;;;5.38;;
74059;SDS011;62414;53.436;8.828;2023-12-14T12:16:58;17.37;;;6.87;;
74059;SDS011;62414;53.436;8.828;2023-12-14T12:19:24;21.37;;;6.53;;
74059;SDS011;62414;53.436;8.828;2023-12-14T12:21:50;16.08;;;5.03;;
74059;SDS011;62414;53.436;8.828;2023-12-14T12:24:16;16.60;;;5.85;;
74059;SDS011;62414;53.436;8.828;2023-12-14T12:26:41;16.13;;;5.60;;
74059;SDS011;62414;53.436;8.828;2023-12-14T12:29:07;14.40;;;6.60;;
74059;SDS011;62414;53.436;8.828;2023-12-14T12:31:32;15.02;;;6.20;;
74059;SDS011;62414;53.436;8.828;2023-12-14T12:33:58;17.10;;;5.87;;
74059;SDS011;62414;53.436;8.828;2023-12-14T12:36:25;15.23;;;5.23;;
74059;SDS011;62414;53.436;8.828;2023-12-14T12:38:50;16.80;;;5.30;;
74059;SDS011;62414;53.436;8.828;2023-12-14T12:41:16;17.10;;;5.87;;
74059;SDS011;62414;53.436;8.828;2023-12-14T12:43:41;16.67;;;5.40;;
74059;SDS011;62414;53.436;8.828;2023-12-14T12:46:07;17.60;;;5.77;;
74059;SDS011;62414;53.436;8.828;2023-12-14T12:48:32;19.83;;;7.60;;
74059;SDS011;62414;53.436;8.828;2023-12-14T12:50:58;17.92;;;6.03;;
74059;SDS011;62414;53.436;8.828;2023-12-14T12:53:24;17.33;;;6.10;;
74059;SDS011;62414;53.436;8.828;2023-12-14T12:55:50;20.15;;;7.70;;
74059;SDS011;62414;53.436;8.828;2023-12-14T12:58:15;20.60;;;6.27;;
74059;SDS011;62414;53.436;8.828;2023-12-14T13:00:41;17.23;;;5.63;;
74059;SDS011;62414;53.436;8.828;2023-12-14T13:03:06;14.70;;;5.22;;
74059;SDS011;62414;53.436;8.828;2023-12-14T13:05:32;18.10;;;5.17;;
74059;SDS011;62414;53.436;8.828;2023-12-14T13:07:57;14.73;;;5.10;;
74059;SDS011;62414;53.436;8.828;2023-12-14T13:10:24;13.43;;;4.45;;
74059;SDS011;62414;53.436;8.828;2023-12-14T13:12:50;12.70;;;4.37;;
74059;SDS011;62414;53.436;8.828;2023-12-14T13:15:15;13.63;;;4.68;;
74059;SDS011;62414;53.436;8.828;2023-12-14T13:17:41;14.37;;;4.80;;
74059;SDS011;62414;53.436;8.828;2023-12-14T13:20:07;12.13;;;4.70;;
74059;SDS011;62414;53.436;8.828;2023-12-14T13:22:32;12.40;;;4.68;;
74059;SDS011;62414;53.436;8.828;2023-12-14T13:24:58;15.68;;;4.55;;
74059;SDS011;62414;53.436;8.828;2023-12-14T13:27:25;15.47;;;4.87;;
74059;SDS011;62414;53.436;8.828;2023-12-14T13:29:50;13.65;;;4.47;;
74059;SDS011;62414;53.436;8.828;2023-12-14T13:32:16;11.40;;;3.97;;
74059;SDS011;62414;53.436;8.828;2023-12-14T13:34:41;12.70;;;4.82;;
74059;SDS011;62414;53.436;8.828;2023-12-14T13:37:07;12.70;;;4.80;;
74059;SDS011;62414;53.436;8.828;2023-12-14T13:39:32;13.37;;;4.50;;
74059;SDS011;62414;53.436;8.828;2023-12-14T13:41:58;13.45;;;4.53;;
74059;SDS011;62414;53.436;8.828;2023-12-14T13:44:25;18.63;;;5.07;;
74059;SDS011;62414;53.436;8.828;2023-12-14T13:46:50;14.98;;;4.38;;
74059;SDS011;62414;53.436;8.828;2023-12-14T13:49:16;13.90;;;5.00;;
74059;SDS011;62414;53.436;8.828;2023-12-14T13:51:41;13.40;;;4.87;;
74059;SDS011;62414;53.436;8.828;2023-12-14T13:54:07;12.02;;;3.78;;
74059;SDS011;62414;53.436;8.828;2023-12-14T13:56:32;11.40;;;4.33;;
74059;SDS011;62414;53.436;8.828;2023-12-14T13:58:58;12.37;;;4.37;;
74059;SDS011;62414;53.436;8.828;2023-12-14T14:01:24;13.63;;;4.88;;
74059;SDS011;62414;53.436;8.828;2023-12-14T14:03:50;12.93;;;4.23;;
74059;SDS011;62414;53.436;8.828;2023-12-14T14:06:15;13.15;;;4.43;;
74059;SDS011;62414;53.436;8.828;2023-12-14T14:08:41;11.40;;;4.50;;
74059;SDS011;62414;53.436;8.828;2023-12-14T14:11:06;11.23;;;4.37;;
74059;SDS011;62414;53.436;8.828;2023-12-14T14:13:32;12.43;;;4.00;;
74059;SDS011;62414;53.436;8.828;2023-12-14T14:15:57;13.10;;;3.80;;
74059;SDS011;62414;53.436;8.828;2023-12-14T14:18:24;12.30;;;3.95;;
74059;SDS011;62414;53.436;8.828;2023-12-14T14:20:50;14.47;;;5.53;;
74059;SDS011;62414;53.436;8.828;2023-12-14T14:23:15;18.60;;;6.05;;
74059;SDS011;62414;53.436;8.828;2023-12-14T14:25:41;15.50;;;5.70;;
74059;SDS011;62414;53.436;8.828;2023-12-14T14:28:06;18.13;;;5.73;;
74059;SDS011;62414;53.436;8.828;2023-12-14T14:30:32;17.25;;;6.50;;